Time;durP1;ratioP1;P1;durP2;ratioP2;P2;SDS_P1;SDS_P2;PMS_P1;PMS_P2;Temp;Humidity;BMP_temperature;BMP_pressure;BME280_temperature;BME280_humidity;BME280_pressure;Samples;Min_cycle;Max_cycle;Signal;HPM_P1;HPM_P2
2022/05/31 00:01:00;;;;;;;6.85;3.47;;;;;;;6.55;85.44;95728.19;2040691;28;20537;-59
2022/05/31 00:02:03;;;;;;;4.63;3.42;;;;;;;6.58;84.69;95725.50;2040817;29;20058;-62
2022/05/31 00:03:05;;;;;;;6.20;4.07;;;;;;;6.58;84.44;95722.09;2024647;29;20052;-59
2022/05/31 00:04:06;;;;;;;8.00;4.20;;;;;;;6.55;84.72;95730.78;2017615;29;20048;-59
2022/05/31 00:05:09;;;;;;;8.18;4.28;;;;;;;6.53;85.13;95729.97;2032837;29;20064;-61
2022/05/31 00:06:11;;;;;;;6.78;4.60;;;;;;;6.51;84.99;95736.09;2040920;28;20422;-62
2022/05/31 00:07:12;;;;;;;7.28;4.07;;;;;;;6.49;85.23;95727.56;2048414;28;20051;-62
2022/05/31 00:08:13;;;;;;;5.95;4.15;;;;;;;6.49;85.83;95724.97;2040183;29;20044;-62
2022/05/31 00:09:14;;;;;;;7.50;4.32;;;;;;;6.47;85.82;95729.34;2048882;28;20066;-61
2022/05/31 00:10:15;;;;;;;7.60;4.60;;;;;;;6.45;85.73;95723.41;2033366;28;20044;-61
2022/05/31 00:11:17;;;;;;;5.88;4.28;;;;;;;6.37;85.99;95724.50;2033695;28;20048;-60
2022/05/31 00:12:18;;;;;;;6.30;4.82;;;;;;;6.38;86.68;95712.47;2033173;29;20693;-59
2022/05/31 00:13:19;;;;;;;6.88;5.07;;;;;;;6.35;86.84;95723.72;2032494;29;20048;-60
2022/05/31 00:14:20;;;;;;;7.10;4.93;;;;;;;6.36;87.02;95716.81;2048071;29;20429;-60
2022/05/31 00:15:22;;;;;;;7.50;5.07;;;;;;;6.34;86.89;95714.31;2041368;28;20055;-61
2022/05/31 00:16:23;;;;;;;8.30;5.18;;;;;;;6.37;87.01;95721.09;2047948;29;20043;-60
2022/05/31 00:17:24;;;;;;;9.85;5.78;;;;;;;6.39;87.11;95715.00;2040461;29;20043;-60
2022/05/31 00:18:25;;;;;;;8.25;5.18;;;;;;;6.35;87.05;95720.31;2032752;29;20557;-60
2022/05/31 00:19:27;;;;;;;10.57;5.47;;;;;;;6.31;87.24;95717.00;2040515;29;20541;-59
2022/05/31 00:20:28;;;;;;;6.60;5.18;;;;;;;6.28;87.37;95717.13;2047621;28;20047;-61
2022/05/31 00:21:37;;;;;;;9.10;5.32;;;;;;;6.26;86.89;95718.91;2033220;29;20052;-62
2022/05/31 00:22:38;;;;;;;9.18;5.63;;;;;;;6.24;87.18;95714.69;2033812;29;20048;-60
2022/05/31 00:23:40;;;;;;;10.73;5.97;;;;;;;6.23;87.07;95723.31;2040017;29;20542;-61
2022/05/31 00:24:41;;;;;;;8.68;5.60;;;;;;;6.18;87.48;95718.31;2039808;29;20114;-62
2022/05/31 00:25:42;;;;;;;9.52;5.53;;;;;;;6.21;87.61;95722.53;2048546;29;20055;-60
2022/05/31 00:26:44;;;;;;;7.07;5.70;;;;;;;6.17;87.70;95725.22;2040799;28;20048;-61
2022/05/31 00:27:45;;;;;;;9.30;5.80;;;;;;;6.20;88.22;95726.81;2040026;28;20059;-61
2022/05/31 00:28:46;;;;;;;6.70;5.10;;;;;;;6.14;87.96;95729.63;2048180;29;20051;-60
2022/05/31 00:29:47;;;;;;;6.93;5.20;;;;;;;6.12;88.40;95731.41;2040323;29;20054;-62
2022/05/31 00:30:48;;;;;;;7.22;5.07;;;;;;;6.10;88.43;95728.88;2040777;29;20051;-61
2022/05/31 00:31:50;;;;;;;8.93;5.80;;;;;;;6.08;88.64;95716.94;2040444;29;20530;-63
2022/05/31 00:32:51;;;;;;;10.75;5.35;;;;;;;6.04;88.51;95723.94;2040240;29;20051;-61
2022/05/31 00:33:52;;;;;;;9.20;5.75;;;;;;;6.08;88.81;95719.53;2048248;28;20055;-61
2022/05/31 00:34:54;;;;;;;7.15;5.45;;;;;;;5.98;88.60;95713.81;2048119;29;20043;-62
2022/05/31 00:35:56;;;;;;;6.10;4.97;;;;;;;6.05;88.89;95715.31;2040196;29;20059;-60
2022/05/31 00:36:57;;;;;;;7.75;6.00;;;;;;;6.06;88.48;95718.72;2048328;28;20043;-62
2022/05/31 00:37:58;;;;;;;7.75;5.20;;;;;;;6.09;88.81;95718.63;2040721;29;20051;-63
2022/05/31 00:39:00;;;;;;;7.80;5.20;;;;;;;6.05;88.71;95717.06;2047785;28;20525;-62
2022/05/31 00:40:01;;;;;;;10.13;5.85;;;;;;;6.03;88.93;95711.09;2032954;29;20051;-61
2022/05/31 00:41:24;;;;;;;7.25;5.45;;;;;;;6.00;88.50;95721.53;2040383;29;20052;-61
2022/05/31 00:42:26;;;;;;;8.55;5.53;;;;;;;5.99;88.41;95718.09;2048695;28;20054;-59
2022/05/31 00:43:27;;;;;;;6.97;5.40;;;;;;;5.95;88.84;95716.50;2047526;29;20074;-60
2022/05/31 00:44:28;;;;;;;11.35;5.30;;;;;;;5.92;88.77;95722.56;2048296;28;20043;-60
2022/05/31 00:45:43;;;;;;;9.45;4.90;;;;;;;5.90;88.76;95708.88;2040590;28;20055;-59
2022/05/31 00:46:55;;;;;;;7.32;5.10;;;;;;;5.86;88.35;95711.66;2042686;29;20056;-61
2022/05/31 00:47:56;;;;;;;7.13;5.32;;;;;;;5.89;88.20;95714.94;2040422;29;20074;-61
2022/05/31 00:49:00;;;;;;;6.82;5.07;;;;;;;5.89;88.48;95717.53;2032552;29;20475;-60
2022/05/31 00:50:04;;;;;;;7.43;5.22;;;;;;;5.85;88.23;95709.94;2040859;29;20055;-60
2022/05/31 00:51:10;;;;;;;6.82;5.30;;;;;;;5.86;87.71;95716.81;2048636;28;20039;-59
2022/05/31 00:52:13;;;;;;;7.22;5.50;;;;;;;5.90;87.69;95718.38;2048153;29;20566;-59
2022/05/31 00:53:17;;;;;;;11.63;5.82;;;;;;;5.95;88.27;95714.78;2040746;29;20426;-62
2022/05/31 00:54:20;;;;;;;6.30;5.00;;;;;;;6.00;88.20;95713.78;2048268;28;20070;-59
2022/05/31 00:55:24;;;;;;;8.10;5.63;;;;;;;6.01;88.13;95713.72;2048350;28;20051;-62
2022/05/31 00:56:26;;;;;;;7.93;5.70;;;;;;;6.03;88.07;95714.50;2039720;29;20530;-60
2022/05/31 00:57:28;;;;;;;6.93;5.63;;;;;;;5.96;88.39;95707.88;2047954;29;20047;-62
2022/05/31 00:58:34;;;;;;;7.22;5.55;;;;;;;5.92;88.45;95712.28;2032361;29;20091;-62
2022/05/31 00:59:42;;;;;;;6.53;5.28;;;;;;;5.90;88.13;95715.78;2041693;28;20052;-61
2022/05/31 01:00:43;;;;;;;7.72;5.70;;;;;;;5.90;88.21;95714.03;2047781;28;20043;-63
2022/05/31 01:01:47;;;;;;;8.45;5.20;;;;;;;5.90;88.10;95708.88;2040446;29;20048;-61
2022/05/31 01:02:49;;;;;;;7.13;5.20;;;;;;;5.90;88.16;95714.03;2040180;29;20063;-62
2022/05/31 01:03:50;;;;;;;7.13;4.90;;;;;;;5.89;88.50;95704.63;2039940;29;20051;-59
2022/05/31 01:04:56;;;;;;;18.52;5.68;;;;;;;5.88;88.34;95702.97;2040386;29;20050;-60
2022/05/31 01:05:57;;;;;;;8.98;5.43;;;;;;;5.90;87.92;95719.19;2040987;29;20466;-62
2022/05/31 01:06:59;;;;;;;8.07;5.38;;;;;;;5.93;88.02;95708.84;2040642;29;20060;-61
2022/05/31 01:08:01;;;;;;;6.18;4.78;;;;;;;5.92;88.12;95707.13;2041144;28;20466;-60
2022/05/31 01:09:09;;;;;;;7.05;5.32;;;;;;;5.91;88.51;95707.19;2041450;29;20047;-59
2022/05/31 01:10:30;;;;;;;7.15;5.13;;;;;;;5.95;88.25;95708.78;2037215;28;20044;-59
2022/05/31 01:11:35;;;;;;;10.77;5.68;;;;;;;5.96;88.08;95708.75;2050788;28;20043;-60
2022/05/31 01:12:56;;;;;;;8.75;5.13;;;;;;;5.97;88.02;95710.41;2049743;28;20054;-61
2022/05/31 01:14:16;;;;;;;6.88;4.88;;;;;;;5.95;88.09;95704.47;2045391;28;20062;-60
2022/05/31 01:15:35;;;;;;;7.78;5.35;;;;;;;6.02;88.19;95699.97;2048232;29;20058;-61
2022/05/31 01:17:01;;;;;;;6.90;5.28;;;;;;;6.01;88.68;95695.69;2048481;28;20501;-62
2022/05/31 01:18:20;;;;;;;8.77;4.85;;;;;;;6.00;88.65;95695.75;2048751;28;20047;-63
2022/05/31 01:19:58;;;;;;;7.03;5.07;;;;;;;5.99;88.81;95699.19;2055892;28;20061;-63
2022/05/31 01:21:05;;;;;;;7.72;5.18;;;;;;;5.97;88.73;95700.09;2048371;28;20047;-63
2022/05/31 01:22:19;;;;;;;9.07;5.47;;;;;;;6.00;88.82;95701.72;2048394;29;20069;-59
2022/05/31 01:23:22;;;;;;;8.07;5.25;;;;;;;5.74;88.75;95659.59;2047795;29;20094;-62
2022/05/31 01:24:23;;;;;;;7.65;5.32;;;;;;;5.91;88.61;95687.41;2048055;28;20127;-59
2022/05/31 01:25:32;;;;;;;8.55;5.15;;;;;;;5.94;88.39;95695.06;2040133;29;20046;-59
2022/05/31 01:26:55;;;;;;;5.65;5.05;;;;;;;5.95;88.72;95689.00;2033456;29;20059;-62
2022/05/31 01:28:19;;;;;;;8.95;5.55;;;;;;;5.95;88.83;95691.56;2046424;28;20054;-61
2022/05/31 01:29:24;;;;;;;9.90;5.30;;;;;;;5.98;88.82;95695.78;2044632;29;20491;-62
2022/05/31 01:30:25;;;;;;;9.50;5.95;;;;;;;6.01;88.30;95694.84;2036314;29;20052;-62
2022/05/31 01:31:48;;;;;;;6.80;5.32;;;;;;;6.02;88.19;95688.81;2040378;29;20058;-60
2022/05/31 01:33:14;;;;;;;7.40;5.57;;;;;;;6.03;88.46;95696.47;2044831;29;20533;-60
2022/05/31 01:34:18;;;;;;;8.23;5.72;;;;;;;6.05;87.87;95694.69;2036611;29;20047;-62
2022/05/31 01:35:29;;;;;;;7.80;6.10;;;;;;;6.08;87.91;95697.16;2045598;29;20043;-62
2022/05/31 01:36:34;;;;;;;10.50;6.13;;;;;;;6.09;87.74;95688.53;2042730;29;20048;-60
2022/05/31 01:37:40;;;;;;;7.45;5.85;;;;;;;6.11;87.97;95689.31;2041592;29;20052;-59
2022/05/31 01:38:45;;;;;;;8.25;5.95;;;;;;;6.11;87.67;95685.91;2041205;29;20043;-62
2022/05/31 01:39:49;;;;;;;7.47;6.10;;;;;;;6.10;87.83;95689.38;2041824;29;20051;-63
2022/05/31 01:41:26;;;;;;;9.75;6.05;;;;;;;6.12;88.68;95691.03;2050015;28;20050;-59
2022/05/31 01:42:44;;;;;;;7.50;5.63;;;;;;;6.16;88.28;95684.00;2057486;28;20554;-59
2022/05/31 01:43:47;;;;;;;9.57;6.23;;;;;;;6.20;87.80;95685.56;2052420;28;20055;-60
2022/05/31 01:44:51;;;;;;;10.50;6.32;;;;;;;6.21;88.13;95689.84;2048969;29;20051;-59
2022/05/31 01:45:58;;;;;;;8.32;5.47;;;;;;;6.27;87.73;95681.88;2042211;29;20056;-60
2022/05/31 01:46:59;;;;;;;9.27;6.38;;;;;;;6.29;88.13;95687.00;2034625;29;20052;-59
2022/05/31 01:48:01;;;;;;;8.32;5.53;;;;;;;6.29;87.61;95687.00;2041464;29;20055;-63
2022/05/31 01:49:06;;;;;;;6.93;5.65;;;;;;;6.29;87.71;95677.53;2049755;28;20050;-62
2022/05/31 01:50:10;;;;;;;6.68;5.28;;;;;;;6.28;87.40;95675.84;2041962;29;20565;-62
2022/05/31 01:51:12;;;;;;;7.40;6.10;;;;;;;6.29;87.46;95687.84;2049641;28;20066;-59
2022/05/31 01:52:13;;;;;;;7.18;5.55;;;;;;;6.28;87.72;95686.16;2049509;29;20058;-62
2022/05/31 01:53:15;;;;;;;8.15;6.00;;;;;;;6.23;87.58;95679.47;2048878;28;20536;-60
2022/05/31 01:54:17;;;;;;;8.48;6.35;;;;;;;6.25;87.77;95682.84;2041255;29;20048;-62
2022/05/31 01:55:18;;;;;;;7.68;5.85;;;;;;;6.22;87.40;95683.78;2041958;29;20099;-61
2022/05/31 01:56:19;;;;;;;8.13;5.88;;;;;;;6.23;87.88;95670.00;2049382;29;20413;-62
2022/05/31 01:57:21;;;;;;;7.68;6.07;;;;;;;6.25;87.51;95675.09;2041464;29;20115;-62
2022/05/31 01:58:24;;;;;;;7.90;5.70;;;;;;;6.28;87.89;95675.84;2041506;29;20050;-60
2022/05/31 01:59:26;;;;;;;8.27;5.55;;;;;;;6.23;88.03;95688.06;2033884;29;20044;-62
2022/05/31 02:00:27;;;;;;;7.10;5.85;;;;;;;6.19;87.68;95683.91;2041828;29;20395;-61
2022/05/31 02:01:30;;;;;;;8.75;5.63;;;;;;;6.19;87.87;95689.88;2049157;29;20051;-63
2022/05/31 02:02:31;;;;;;;8.57;5.70;;;;;;;6.18;88.13;95687.38;2041741;29;20059;-60
2022/05/31 02:03:32;;;;;;;10.20;5.80;;;;;;;6.18;88.18;95684.81;2041121;29;20058;-63
2022/05/31 02:04:34;;;;;;;11.75;6.70;;;;;;;6.16;88.26;95689.16;2048832;28;20051;-63
2022/05/31 02:05:35;;;;;;;10.48;6.95;;;;;;;6.14;88.31;95685.78;2049526;29;20047;-61
2022/05/31 02:06:38;;;;;;;8.20;6.35;;;;;;;6.14;88.83;95683.22;2040917;29;20043;-62
2022/05/31 02:07:39;;;;;;;9.13;6.18;;;;;;;6.14;88.59;95690.94;2041489;29;20051;-59
2022/05/31 02:08:42;;;;;;;8.45;6.88;;;;;;;6.11;88.59;95680.75;2033805;29;20044;-63
2022/05/31 02:09:45;;;;;;;8.23;6.70;;;;;;;6.10;88.77;95692.81;2033838;29;20056;-63
2022/05/31 02:10:54;;;;;;;10.52;6.57;;;;;;;6.08;89.22;95691.16;2034723;29;20247;-59
2022/05/31 02:11:56;;;;;;;8.60;6.63;;;;;;;6.09;89.15;95698.84;2049366;28;20568;-62
2022/05/31 02:13:01;;;;;;;9.00;7.00;;;;;;;6.09;89.28;95691.09;2040340;29;20556;-61
2022/05/31 02:14:08;;;;;;;11.07;7.10;;;;;;;6.06;89.47;95696.38;2042940;28;20445;-61
2022/05/31 02:15:10;;;;;;;9.57;7.22;;;;;;;6.11;89.24;95694.47;2040549;29;20430;-61
2022/05/31 02:16:15;;;;;;;11.93;7.60;;;;;;;6.10;89.69;95691.97;2035138;29;20055;-62
2022/05/31 02:17:36;;;;;;;8.25;5.78;;;;;;;6.08;89.55;95699.75;2032902;29;20116;-59
2022/05/31 02:20:37;;;;;;;8.70;6.32;;;;;;;6.08;89.29;95701.47;2042923;28;20074;-60
2022/05/31 02:21:38;;;;;;;11.10;6.78;;;;;;;6.08;89.69;95698.91;2033969;29;20052;-60
2022/05/31 02:22:39;;;;;;;7.60;6.10;;;;;;;6.10;89.33;95704.84;2033770;29;20044;-61
2022/05/31 02:23:40;;;;;;;9.10;6.90;;;;;;;6.09;88.66;95709.13;2040935;29;20067;-60
2022/05/31 02:24:41;;;;;;;8.85;6.75;;;;;;;6.10;88.45;95699.69;2032662;29;20051;-60
2022/05/31 02:25:43;;;;;;;8.38;6.60;;;;;;;6.10;88.87;95707.44;2040950;29;20055;-60
2022/05/31 02:26:44;;;;;;;8.68;7.05;;;;;;;6.09;88.62;95704.00;2049168;28;20540;-61
2022/05/31 02:27:46;;;;;;;10.27;6.78;;;;;;;6.08;89.16;95704.88;2041392;29;20055;-61
2022/05/31 02:28:47;;;;;;;8.65;6.78;;;;;;;6.07;89.12;95708.38;2041878;29;20047;-59
2022/05/31 02:29:48;;;;;;;9.95;6.78;;;;;;;6.06;89.22;95716.97;2041111;29;20055;-59
2022/05/31 02:30:50;;;;;;;9.02;6.57;;;;;;;6.05;89.29;95720.47;2033866;29;20430;-59
2022/05/31 02:31:51;;;;;;;8.60;6.93;;;;;;;6.04;89.59;95721.38;2041744;29;20518;-60
2022/05/31 02:32:52;;;;;;;8.93;6.50;;;;;;;6.06;89.52;95716.97;2049666;28;20047;-62
2022/05/31 02:33:54;;;;;;;9.23;7.32;;;;;;;6.09;89.40;95718.63;2041077;28;20071;-59
2022/05/31 02:34:56;;;;;;;8.85;6.35;;;;;;;6.11;89.08;95719.41;2048524;29;20054;-60
2022/05/31 02:35:57;;;;;;;7.88;6.57;;;;;;;6.11;88.83;95724.56;2041706;28;20051;-59
2022/05/31 02:36:58;;;;;;;7.95;6.45;;;;;;;6.10;88.72;95721.16;2041412;29;20441;-60
2022/05/31 02:37:59;;;;;;;8.13;6.45;;;;;;;6.14;89.26;95717.56;2033238;29;20055;-59
2022/05/31 02:39:01;;;;;;;8.50;6.75;;;;;;;6.13;88.78;95715.06;2026661;28;20096;-61
2022/05/31 02:40:10;;;;;;;10.73;7.32;;;;;;;6.12;88.60;95713.34;2042749;28;20044;-61
2022/05/31 02:41:11;;;;;;;8.63;7.22;;;;;;;6.13;89.12;95712.47;2042555;29;20462;-61
2022/05/31 02:42:13;;;;;;;10.10;7.15;;;;;;;6.12;88.56;95714.22;2048811;29;20636;-60
2022/05/31 02:43:14;;;;;;;8.98;6.68;;;;;;;6.09;88.68;95710.88;2048753;28;20042;-61
2022/05/31 02:44:15;;;;;;;11.07;6.85;;;;;;;6.14;88.64;95714.16;2033263;29;20044;-60
2022/05/31 02:45:17;;;;;;;10.40;7.32;;;;;;;6.13;88.34;95715.06;2025834;29;20048;-60
2022/05/31 02:46:20;;;;;;;9.65;7.30;;;;;;;6.12;88.78;95713.34;2026930;28;20056;-62
2022/05/31 02:47:21;;;;;;;11.20;7.30;;;;;;;6.12;88.92;95710.78;2056673;28;20051;-61
2022/05/31 02:48:23;;;;;;;9.88;6.97;;;;;;;6.10;89.26;95705.69;2049105;29;20039;-60
2022/05/31 02:49:25;;;;;;;8.23;6.40;;;;;;;6.08;89.14;95712.63;2041636;28;20047;-58
2022/05/31 02:50:27;;;;;;;7.75;6.47;;;;;;;6.06;88.66;95713.56;2048969;28;20422;-60
2022/05/31 02:51:28;;;;;;;11.15;7.32;;;;;;;6.05;88.53;95717.91;2040966;29;20056;-60
2022/05/31 02:52:32;;;;;;;11.63;7.60;;;;;;;6.04;88.97;95713.66;2033248;29;20138;-58
2022/05/31 02:53:33;;;;;;;10.05;7.03;;;;;;;6.04;88.69;95716.22;2048707;29;20059;-59
2022/05/31 02:54:36;;;;;;;9.13;7.13;;;;;;;6.03;88.88;95706.78;2026025;29;20049;-60
2022/05/31 02:55:57;;;;;;;9.45;7.07;;;;;;;6.04;89.42;95708.50;2041867;28;20429;-60
2022/05/31 02:56:59;;;;;;;11.30;7.28;;;;;;;6.05;89.27;95709.31;2038470;29;20056;-63
2022/05/31 02:58:20;;;;;;;11.63;6.95;;;;;;;6.04;88.98;95705.03;2033738;29;20043;-61
2022/05/31 02:59:40;;;;;;;9.80;7.07;;;;;;;6.03;89.18;95706.78;2039072;29;20051;-61
2022/05/31 03:00:41;;;;;;;8.45;6.72;;;;;;;6.02;89.44;95705.13;2051441;28;20050;-62
2022/05/31 03:01:51;;;;;;;12.55;6.90;;;;;;;6.01;89.10;95710.31;2055046;28;20055;-62
2022/05/31 03:03:10;;;;;;;8.85;6.75;;;;;;;6.04;89.61;95718.78;2041661;28;20417;-63
2022/05/31 03:04:32;;;;;;;8.68;6.55;;;;;;;6.04;89.05;95715.34;2040990;29;20050;-62
2022/05/31 03:05:53;;;;;;;9.07;6.63;;;;;;;6.04;89.07;95725.66;2054426;28;20054;-62
2022/05/31 03:07:14;;;;;;;9.13;6.18;;;;;;;6.03;89.13;95716.25;2043787;28;20050;-61
2022/05/31 03:08:35;;;;;;;9.60;6.82;;;;;;;6.05;89.42;95715.31;2041017;29;20036;-59
2022/05/31 03:09:43;;;;;;;10.15;6.40;;;;;;;6.03;89.62;95711.94;2041843;28;20410;-61
2022/05/31 03:10:47;;;;;;;9.85;7.15;;;;;;;6.05;89.62;95719.63;2040983;29;20055;-63
2022/05/31 03:11:53;;;;;;;8.55;6.88;;;;;;;6.06;89.48;95719.56;2041520;29;20051;-62
2022/05/31 03:12:55;;;;;;;11.00;7.78;;;;;;;6.05;90.17;95715.31;2039880;29;20537;-61
2022/05/31 03:13:59;;;;;;;8.75;7.13;;;;;;;6.11;89.94;95714.25;2036509;29;20055;-59
2022/05/31 03:15:03;;;;;;;11.93;7.22;;;;;;;6.14;89.68;95709.81;2038091;29;20052;-60
2022/05/31 03:16:05;;;;;;;13.25;7.57;;;;;;;6.11;89.98;95711.69;2041778;28;20698;-60
2022/05/31 03:17:17;;;;;;;9.60;6.68;;;;;;;6.08;89.74;95711.78;2048609;28;20047;-59
2022/05/31 03:18:20;;;;;;;11.68;7.22;;;;;;;6.03;89.95;95714.50;2049884;28;20043;-61
2022/05/31 03:19:24;;;;;;;9.80;7.30;;;;;;;6.03;89.62;95724.00;2048399;28;20047;-60
2022/05/31 03:20:28;;;;;;;7.03;6.28;;;;;;;5.98;89.79;95711.25;2040699;29;20058;-63
2022/05/31 03:21:32;;;;;;;9.07;7.10;;;;;;;5.99;90.00;95712.94;2047537;28;20062;-59
2022/05/31 03:22:39;;;;;;;8.55;6.90;;;;;;;5.99;89.63;95712.94;2049063;28;20537;-62
2022/05/31 03:23:44;;;;;;;8.02;6.63;;;;;;;6.00;89.40;95718.94;2041407;29;20051;-63
2022/05/31 03:24:50;;;;;;;8.18;7.15;;;;;;;5.98;89.79;95726.72;2055601;28;20533;-59
2022/05/31 03:25:51;;;;;;;7.65;6.55;;;;;;;5.97;89.62;95719.88;2049600;28;20061;-59
2022/05/31 03:26:53;;;;;;;8.38;6.68;;;;;;;5.96;89.88;95728.50;2041240;29;20436;-60
2022/05/31 03:27:57;;;;;;;8.77;7.00;;;;;;;5.95;89.28;95725.09;2041130;28;20055;-62
2022/05/31 03:28:58;;;;;;;8.23;6.63;;;;;;;5.98;89.53;95731.88;2048689;29;20054;-60
2022/05/31 03:30:00;;;;;;;9.55;7.05;;;;;;;6.00;89.39;95724.09;2048102;29;20581;-59
2022/05/31 03:31:02;;;;;;;11.20;7.03;;;;;;;6.02;89.61;95722.31;2048181;29;20051;-61
2022/05/31 03:32:04;;;;;;;11.68;7.00;;;;;;;6.04;89.81;95723.94;2048746;28;20043;-62
2022/05/31 03:33:07;;;;;;;9.20;7.35;;;;;;;6.07;89.73;95720.44;2041172;29;20148;-59
2022/05/31 03:34:08;;;;;;;8.48;6.68;;;;;;;6.10;89.43;95721.16;2040417;29;20047;-61
2022/05/31 03:35:09;;;;;;;9.05;6.32;;;;;;;6.15;89.24;95721.84;2048791;28;20050;-61
2022/05/31 03:36:12;;;;;;;8.10;6.70;;;;;;;6.18;89.18;95713.16;2049040;28;20043;-62
2022/05/31 03:37:19;;;;;;;8.63;6.88;;;;;;;6.23;89.30;95711.28;2041326;29;20055;-62
2022/05/31 03:38:22;;;;;;;10.27;6.85;;;;;;;6.08;88.99;95676.53;2048990;28;20513;-60
2022/05/31 03:39:23;;;;;;;10.63;6.93;;;;;;;6.33;88.75;95706.63;2041153;29;20043;-60
2022/05/31 03:41:46;;;;;;;14.73;6.68;;;;;;;6.45;87.90;95713.94;2042818;29;20048;-63
2022/05/31 03:42:48;;;;;;;10.43;6.53;;;;;;;6.52;88.03;95710.25;2048809;28;20055;-67
2022/05/31 03:43:49;;;;;;;8.30;6.43;;;;;;;6.58;87.76;95717.75;2040468;29;20049;-61
2022/05/31 03:45:10;;;;;;;11.60;7.68;;;;;;;6.59;87.55;95711.69;2046317;28;20057;-60
2022/05/31 03:46:17;;;;;;;8.27;6.38;;;;;;;6.67;87.91;95711.41;2053754;28;20043;-61
2022/05/31 03:47:30;;;;;;;10.55;6.60;;;;;;;6.70;87.29;95718.22;2043651;28;20051;-61
2022/05/31 03:48:52;;;;;;;7.85;6.25;;;;;;;6.72;87.21;95722.41;2048110;29;20564;-60
2022/05/31 03:49:53;;;;;;;9.80;6.85;;;;;;;6.77;87.13;95723.09;2048835;28;20054;-59
2022/05/31 03:51:04;;;;;;;7.25;5.90;;;;;;;6.80;86.65;95712.66;2048394;28;20119;-60
2022/05/31 03:52:05;;;;;;;8.10;6.63;;;;;;;6.83;86.77;95717.69;2049536;28;20051;-61
2022/05/31 03:53:11;;;;;;;8.70;6.85;;;;;;;6.89;87.11;95723.53;2040244;29;20043;-59
2022/05/31 03:54:13;;;;;;;9.93;6.85;;;;;;;6.89;86.47;95726.13;2033794;29;20055;-60
2022/05/31 03:55:44;;;;;;;10.23;6.50;;;;;;;6.87;86.93;95723.59;2048072;28;20108;-61
2022/05/31 03:56:45;;;;;;;9.10;6.80;;;;;;;6.86;86.52;95719.31;2045411;28;20058;-62
2022/05/31 03:57:48;;;;;;;9.07;6.90;;;;;;;6.88;86.78;95717.53;2049003;28;20469;-61
2022/05/31 03:59:01;;;;;;;7.75;5.90;;;;;;;6.91;86.67;95719.16;2040898;28;20047;-61
2022/05/31 04:00:04;;;;;;;7.97;6.10;;;;;;;6.92;86.55;95718.25;2037012;29;20044;-59
2022/05/31 04:01:19;;;;;;;7.60;6.43;;;;;;;6.95;86.82;95724.16;2049504;28;20078;-60
2022/05/31 04:02:22;;;;;;;7.65;5.80;;;;;;;6.98;86.59;95723.22;2049709;28;20058;-59
2022/05/31 04:03:24;;;;;;;9.13;6.88;;;;;;;6.96;86.58;95722.41;2048162;29;20465;-60
2022/05/31 04:04:26;;;;;;;9.02;6.20;;;;;;;6.91;86.44;95725.16;2040976;29;20067;-62
2022/05/31 04:05:28;;;;;;;8.07;5.72;;;;;;;6.89;86.27;95723.53;2040780;29;20051;-59
2022/05/31 04:06:31;;;;;;;9.20;6.63;;;;;;;6.90;86.45;95718.31;2049070;28;20051;-59
2022/05/31 04:07:32;;;;;;;7.78;6.07;;;;;;;6.88;86.13;95725.28;2048058;28;20528;-62
2022/05/31 04:08:34;;;;;;;8.43;6.15;;;;;;;6.87;86.26;95725.31;2048723;28;20548;-60
2022/05/31 04:09:35;;;;;;;9.82;6.22;;;;;;;6.85;86.32;95723.66;2048175;29;20062;-61
2022/05/31 04:10:41;;;;;;;8.20;6.25;;;;;;;6.83;85.94;95728.03;2039951;29;20111;-60
2022/05/31 04:11:43;;;;;;;8.77;6.43;;;;;;;6.82;86.29;95721.19;2034043;29;20068;-62
2022/05/31 04:12:51;;;;;;;7.28;6.13;;;;;;;6.83;85.75;95722.84;2041787;29;20490;-60
2022/05/31 04:14:11;;;;;;;9.55;6.25;;;;;;;6.87;86.08;95725.31;2043594;28;20047;-60
2022/05/31 04:15:19;;;;;;;12.18;6.68;;;;;;;6.89;85.92;95724.38;2043807;28;20409;-60
2022/05/31 04:16:20;;;;;;;9.15;6.60;;;;;;;6.93;85.67;95727.69;2041396;29;20553;-60
2022/05/31 04:17:29;;;;;;;10.30;6.22;;;;;;;6.96;85.48;95731.00;2041573;29;20043;-63
2022/05/31 04:18:30;;;;;;;7.97;6.30;;;;;;;6.96;85.70;95728.41;2040857;29;20518;-61
2022/05/31 04:19:31;;;;;;;8.55;6.57;;;;;;;6.98;85.36;95725.78;2037116;29;20054;-62
2022/05/31 04:20:34;;;;;;;8.45;6.85;;;;;;;6.98;85.72;95726.63;2040555;29;20047;-61
2022/05/31 04:21:35;;;;;;;7.03;5.97;;;;;;;7.03;85.98;95734.19;2048767;28;20047;-62
2022/05/31 04:22:36;;;;;;;9.68;6.18;;;;;;;6.99;86.22;95730.03;2040015;29;20055;-63
2022/05/31 04:25:24;;;;;;;7.88;6.38;;;;;;;7.00;86.01;95732.59;2055639;28;20062;-61
2022/05/31 04:26:46;;;;;;;8.05;6.15;;;;;;;7.06;86.02;95737.50;2040581;29;20058;-61
2022/05/31 04:28:07;;;;;;;8.85;6.10;;;;;;;7.20;85.11;95733.56;2052034;28;20082;-60
2022/05/31 04:29:27;;;;;;;7.90;6.20;;;;;;;7.25;84.69;95740.22;2046945;28;20047;-60
2022/05/31 04:30:48;;;;;;;7.95;6.28;;;;;;;7.19;84.83;95739.63;2040802;28;20446;-60
2022/05/31 04:31:52;;;;;;;8.15;6.22;;;;;;;7.29;84.57;95736.63;2035991;29;20076;-61
2022/05/31 04:33:04;;;;;;;8.00;6.30;;;;;;;7.40;84.26;95743.13;2034748;29;20048;-60
2022/05/31 04:34:09;;;;;;;7.05;5.28;;;;;;;7.52;83.97;95742.66;2043612;28;20035;-61
2022/05/31 04:35:10;;;;;;;8.48;6.10;;;;;;;7.59;83.86;95738.94;2041070;28;20050;-61
2022/05/31 04:36:14;;;;;;;7.78;5.85;;;;;;;7.66;83.42;95745.53;2046268;28;20069;-60
2022/05/31 04:37:16;;;;;;;7.80;5.90;;;;;;;7.65;83.39;95741.28;2047596;29;20039;-60
2022/05/31 04:38:37;;;;;;;7.88;5.88;;;;;;;7.67;83.28;95739.47;2048377;28;20540;-59
2022/05/31 04:39:38;;;;;;;8.70;6.18;;;;;;;7.71;83.50;95743.59;2045731;28;20430;-60
2022/05/31 04:40:47;;;;;;;8.23;5.85;;;;;;;7.72;82.87;95739.25;2051392;28;20039;-62
2022/05/31 04:41:51;;;;;;;8.00;5.72;;;;;;;7.65;83.34;95743.03;2055502;28;20061;-63
2022/05/31 04:42:52;;;;;;;7.35;5.90;;;;;;;7.67;83.22;95739.47;2048288;29;20047;-63
2022/05/31 04:44:15;;;;;;;8.82;5.97;;;;;;;7.63;83.29;95740.47;2042031;29;20047;-64
2022/05/31 04:45:16;;;;;;;9.70;6.13;;;;;;;7.61;83.41;95738.84;2043715;28;20054;-62
2022/05/31 04:46:19;;;;;;;8.57;6.32;;;;;;;7.64;83.61;95739.56;2047649;28;20043;-59
2022/05/31 04:47:34;;;;;;;7.57;5.85;;;;;;;7.63;83.56;95731.91;2054308;28;20047;-60
2022/05/31 04:48:35;;;;;;;14.05;6.70;;;;;;;7.59;83.78;95728.59;2048376;28;20043;-59
2022/05/31 04:49:37;;;;;;;6.85;6.15;;;;;;;7.53;83.84;95728.81;2040316;29;20152;-59
2022/05/31 04:50:38;;;;;;;6.72;5.90;;;;;;;7.47;84.12;95723.91;2040257;29;20103;-61
2022/05/31 04:51:40;;;;;;;9.52;6.38;;;;;;;7.42;84.16;95720.66;2048542;28;20047;-60
2022/05/31 04:52:48;;;;;;;8.65;6.18;;;;;;;7.51;84.30;95717.69;2048277;29;20040;-62
2022/05/31 04:53:50;;;;;;;10.10;6.47;;;;;;;7.46;84.50;95714.47;2048109;29;20046;-61
2022/05/31 04:55:11;;;;;;;11.38;6.22;;;;;;;7.41;84.51;95712.06;2048010;29;20532;-61
2022/05/31 04:56:19;;;;;;;8.48;5.50;;;;;;;7.51;84.34;95713.41;2044678;28;20043;-60
2022/05/31 04:57:22;;;;;;;8.18;5.93;;;;;;;7.56;84.59;95718.34;2048199;28;20039;-59
2022/05/31 04:58:24;;;;;;;7.95;5.85;;;;;;;7.65;84.06;95720.59;2048756;28;20055;-59
2022/05/31 04:59:25;;;;;;;7.68;6.43;;;;;;;7.68;83.96;95719.63;2041003;28;20043;-60
2022/05/31 05:00:27;;;;;;;10.35;7.03;;;;;;;7.74;83.81;95722.78;2040960;28;20079;-60
2022/05/31 05:01:40;;;;;;;8.98;6.47;;;;;;;7.81;83.45;95725.16;2048626;28;20059;-62
2022/05/31 05:02:47;;;;;;;7.85;5.88;;;;;;;7.82;83.51;95724.25;2056381;28;20540;-61
2022/05/31 05:03:48;;;;;;;9.73;6.47;;;;;;;7.92;83.27;95726.38;2047710;29;20514;-62
2022/05/31 05:04:49;;;;;;;8.13;5.78;;;;;;;8.05;82.96;95718.97;2039755;29;20051;-61
2022/05/31 05:06:12;;;;;;;9.55;5.95;;;;;;;8.07;82.54;95711.13;2042947;28;20418;-62
2022/05/31 05:07:15;;;;;;;8.48;5.47;;;;;;;8.17;82.70;95708.09;2044906;29;20063;-62
2022/05/31 05:08:16;;;;;;;10.02;6.20;;;;;;;8.29;82.36;95705.91;2042274;28;20489;-61
2022/05/31 05:09:17;;;;;;;8.90;5.88;;;;;;;8.38;82.17;95710.69;2033939;29;20352;-61
2022/05/31 05:10:46;;;;;;;6.90;5.80;;;;;;;8.60;80.90;95713.19;2039495;29;20051;-61
2022/05/31 05:12:03;;;;;;;7.55;5.65;;;;;;;8.68;80.94;95715.44;2049756;28;20043;-60
2022/05/31 05:13:10;;;;;;;6.05;5.03;;;;;;;8.61;80.84;95713.16;2044179;29;20046;-60
2022/05/31 05:14:31;;;;;;;6.75;5.35;;;;;;;8.67;80.70;95717.22;2049949;28;20047;-59
2022/05/31 05:15:40;;;;;;;8.90;5.30;;;;;;;8.81;80.57;95726.94;2052755;28;20055;-62
2022/05/31 05:16:42;;;;;;;7.30;5.10;;;;;;;8.81;80.17;95721.78;2041863;29;20055;-62
2022/05/31 05:17:43;;;;;;;6.97;5.57;;;;;;;8.86;79.83;95719.81;2034089;29;20067;-61
2022/05/31 05:18:45;;;;;;;5.95;5.07;;;;;;;8.91;79.92;95732.56;2042261;29;20058;-61